Alma, Missouri
Current Conditions -  °F | °C
As of 9:55 AM on Saturday 22 Nov 2014 (Local Time) from KMHL Reporting Station
Overcast Overcast  
Wind Chill: 57°   Ceiling: 1500
Heat Index: 57°   Visibility: 10mi
Dew Point: 52°   Wind: 15mph
Humidity: 82%   Direction: 200°SSW
Pressure: 30"   Gusts: 21mph
Location:  39.1°N, 93.55°W
Report Text: KMHL 221555Z AUTO 20013G18KT 10SM OVC015 14/11 A3000 RMK AO2
Loading
Personal Weather Stations






























Interactive Weather Map New forecast layout! Learn more

10-Day Weather Forecast

Advertisements
Track Severe Weather on mobile